Thunder radar more information blitzortung!


Radar de pluja more information rain snow radar


Visita la nostra xarxa de llocs de meteo:

Template documentation
and downloads

And another site



No particular awareness of the weather is required.    There are no Weather-warnings

Pagina Historial Weather Underground text

Diari Resum May 16, 2017 Unitats:  Mètric    Imperial   Tant
« Previous Dia
SegĂźent Dia »
Diari Setmana Mensual Anual Personalitzada
  Maxima: Minima: Media:
Temperatura: -17.8 °C -9.5 °C -5 °C
Punt de rosada: -17.8 °C -14.6 °C -12.4 °C
Humitat: Humidity % 28 % 45 %
Wind Speed: 0 km/h 0 km/h 10.6 km/h
RĂ fegues de vent: 0 km/h - -
Vent:- - SSE
Pression baro: 0 hPa 34635.4 hPa -
Precipitacions: 0 mm    
Historical Graphs
 
 
Dades de taula per May 16, 2017
Temps Temperatura Punt de rosada Pression baro Vent Wind Speed RĂ fegues de vent Humitat Rainfall Rate (Hourly)
-17.8 °C -17.8 °C 0 hPa Calm     Humidity % 0 mm
00:03 -7.6 °C -12.1 °C 34740.4 hPa Calm     59 % 0 mm
00:05 -9.1 °C -12.1 °C 34740.4 hPa Calm   2.6 km/h 70 % 0 mm
00:15 -9.2 °C -12.3 °C 34740.4 hPa Calm     70 % 0 mm
00:25 -9.3 °C -12.3 °C 34740.4 hPa Calm     70 % 0 mm
00:35 -9.3 °C -12.3 °C 34740.4 hPa Calm   2.6 km/h 70 % 0 mm
00:45 -9.3 °C -12.3 °C 34740.4 hPa Calm   5.1 km/h 70 % 0 mm
01:05 -9.3 °C -12.3 °C 34740.4 hPa Calm     70 % 0 mm
01:15 -9.3 °C -12.2 °C 34703.1 hPa Calm   2.6 km/h 71 % 0 mm
01:25 -9.5 °C -12.5 °C 34740.4 hPa WSW 2.6 km/h 2.6 km/h 70 % 0 mm
01:35 -9.5 °C -12.5 °C 34740.4 hPa WSW 5.1 km/h 5.1 km/h 70 % 0 mm
01:45 -9.5 °C -12.5 °C 34740.4 hPa WSW 5.1 km/h 5.1 km/h 70 % 0 mm
01:55 -9.5 °C -12.4 °C 34740.4 hPa Calm   5.1 km/h 71 % 0 mm
02:05 -9.5 °C -12.3 °C 34740.4 hPa Calm     72 % 0 mm
02:15 -9.2 °C -12 °C 34740.4 hPa Calm   2.6 km/h 72 % 0 mm
02:25 -9 °C -11.9 °C 34740.4 hPa Calm     71 % 0 mm
02:35 -8.8 °C -11.7 °C 34740.4 hPa Calm     71 % 0 mm
02:45 -8.7 °C -11.8 °C 34740.4 hPa SSE 2.6 km/h 2.6 km/h 70 % 0 mm
02:55 -8.4 °C -11.6 °C 34740.4 hPa East 2.6 km/h 5.1 km/h 69 % 0 mm
03:05 -8.4 °C -11.8 °C 34740.4 hPa ESE 2.6 km/h 5.1 km/h 68 % 0 mm
03:15 -8.4 °C -11.8 °C 34740.4 hPa SSW 2.6 km/h 5.1 km/h 68 % 0 mm
03:25 -8.4 °C -11.7 °C 34740.4 hPa SW 2.6 km/h 5.1 km/h 68 % 0 mm
03:35 -8.2 °C -11.7 °C 34740.4 hPa SW 5.1 km/h 7.7 km/h 66 % 0 mm
03:45 -7.3 °C -10.9 °C 34740.4 hPa SSW 2.6 km/h 2.6 km/h 66 % 0 mm
03:55 -7.2 °C -11.3 °C 34740.4 hPa SSW 2.6 km/h 5.1 km/h 62 % 0 mm
04:05 -6.9 °C -11.1 °C 34740.4 hPa SW 2.6 km/h 5.1 km/h 62 % 0 mm
04:15 -6.3 °C -10.7 °C 34740.4 hPa South 2.6 km/h 5.1 km/h 60 % 0 mm
04:25 -6.1 °C -10.9 °C 34740.4 hPa ENE 2.6 km/h 7.7 km/h 58 % 0 mm
04:35 -5.9 °C -10.7 °C 34740.4 hPa NE 2.6 km/h 7.7 km/h 58 % 0 mm
04:45 -6 °C -10.9 °C 34740.4 hPa ENE 5.1 km/h 7.7 km/h 57 % 0 mm
04:55 -5.9 °C -10.8 °C 34740.4 hPa NE 12.9 km/h 15.6 km/h 57 % 0 mm
05:05 -5.4 °C -10.7 °C 34740.4 hPa NE 5.1 km/h 10.3 km/h 55 % 0 mm
05:15 -5.2 °C -10.4 °C 34740.4 hPa ENE 2.6 km/h 7.7 km/h 55 % 0 mm
05:25 -4.9 °C -10.5 °C 34740.4 hPa NE 2.6 km/h 10.3 km/h 53 % 0 mm
05:35 -4.8 °C -10.9 °C 34740.4 hPa NNE 7.7 km/h 10.3 km/h 50 % 0 mm
05:45 -4.4 °C -10.6 °C 34740.4 hPa East 5.1 km/h 7.7 km/h 50 % 0 mm
10:46 -4.4 °C -10.6 °C 34740.4 hPa ENE 3.1 km/h   50 % 0 mm
10:51 -4.3 °C -10.5 °C 34740.4 hPa NNE 11.9 km/h 11.9 km/h 50 % 0 mm
10:56 -4.2 °C -10.5 °C 34740.4 hPa NE 11.9 km/h 11.9 km/h 49 % 0 mm
11:01 -4.2 °C -10.6 °C 34740.4 hPa ENE 12.7 km/h 12.7 km/h 49 % 0 mm
11:06 -4.2 °C -10.7 °C 34740.4 hPa ESE 9 km/h 9 km/h 48 % 0 mm
11:11 -4 °C -10.5 °C 34740.4 hPa ENE 15 km/h 15 km/h 48 % 0 mm
11:16 -3.8 °C -10.4 °C 34740.4 hPa NNE 9 km/h 9 km/h 48 % 0 mm
11:21 -3.9 °C -10.6 °C 34740.4 hPa East 9 km/h 9 km/h 47 % 0 mm
11:26 -3.8 °C -10.6 °C 34740.4 hPa East 15 km/h 15 km/h 47 % 0 mm
11:31 -3.9 °C -10.7 °C 34740.4 hPa East 15 km/h 15 km/h 47 % 0 mm
11:36 -3.9 °C -10.8 °C 34740.4 hPa ENE 17.9 km/h 17.9 km/h 46 % 0 mm
11:41 -3.8 °C -10.7 °C 34703.1 hPa ENE 11.9 km/h 11.9 km/h 46 % 0 mm
11:46 -3.6 °C -10.5 °C 34703.1 hPa ESE 15 km/h 15 km/h 46 % 0 mm
11:51 -3.4 °C -10.6 °C 34703.1 hPa ENE 11.9 km/h 11.9 km/h 45 % 0 mm
11:56 -3.3 °C -10.4 °C 34740.4 hPa ESE 15.3 km/h 15.3 km/h 45 % 0 mm
12:01 -3.2 °C -10.4 °C 34740.4 hPa ESE 11.9 km/h 11.9 km/h 45 % 0 mm
12:06 -3.1 °C -10.4 °C 34740.4 hPa SE 11.9 km/h 11.9 km/h 44 % 0 mm
12:11 -3.1 °C -10.4 °C 34740.4 hPa NNE 11.9 km/h 11.9 km/h 44 % 0 mm
12:16 -3.1 °C -10.9 °C 34740.4 hPa North 8 km/h 8 km/h 42 % 0 mm
12:21 -2.7 °C -10.7 °C 34740.4 hPa SSE 11.9 km/h 11.9 km/h 41 % 0 mm
12:26 -2.8 °C -10.8 °C 34740.4 hPa SE 15.6 km/h 15.6 km/h 41 % 0 mm
12:31 -3 °C -10.9 °C 34740.4 hPa ESE 11.9 km/h 11.9 km/h 41 % 0 mm
12:36 -3 °C -10.9 °C 34740.4 hPa SE 20.9 km/h 20.9 km/h 41 % 0 mm
12:41 -2.9 °C -10.9 °C 34740.4 hPa NE 15 km/h 15 km/h 41 % 0 mm
12:46 -2.9 °C -10.9 °C 34740.4 hPa ENE 23.8 km/h 23.8 km/h 41 % 0 mm
12:51 -2.7 °C -10.7 °C 34740.4 hPa ENE 15.3 km/h 15.3 km/h 41 % 0 mm
12:56 -2.7 °C -10.9 °C 34703.1 hPa East 15.6 km/h 15.6 km/h 40 % 0 mm
13:01 -2.7 °C -10.9 °C 34703.1 hPa ESE 15 km/h 15 km/h 40 % 0 mm
13:06 -2.9 °C -11.1 °C 34703.1 hPa SE 17.9 km/h 17.9 km/h 40 % 0 mm
13:11 -2.9 °C -11.1 °C 34740.4 hPa SE 20.9 km/h 20.9 km/h 40 % 0 mm
13:16 -2.9 °C -11.1 °C 34740.4 hPa ESE 25.1 km/h 25.1 km/h 40 % 0 mm
13:21 -3.1 °C -11.3 °C 34740.4 hPa East 29.8 km/h 29.8 km/h 40 % 0 mm
13:26 -3.1 °C -11.2 °C 34703.1 hPa SE 25.4 km/h 25.4 km/h 40 % 0 mm
13:31 -3.1 °C -11.2 °C 34703.1 hPa ENE 26.9 km/h 26.9 km/h 40 % 0 mm
13:36 -2.9 °C -11.1 °C 34703.1 hPa SSE 20.9 km/h 20.9 km/h 40 % 0 mm
13:41 -3.1 °C -11.5 °C 34669.3 hPa ESE 27.2 km/h 27.2 km/h 39 % 0 mm
13:46 -2.9 °C -11.1 °C 34669.3 hPa East 15 km/h 15 km/h 40 % 0 mm
13:51 -3.1 °C -11.4 °C 34669.3 hPa East 20.9 km/h 20.9 km/h 39 % 0 mm
13:56 -3.1 °C -11.5 °C 34669.3 hPa SE 23.8 km/h 23.8 km/h 39 % 0 mm
14:01 -2.9 °C -11.3 °C 34669.3 hPa SE 28.2 km/h 28.2 km/h 39 % 0 mm
14:06 -2.7 °C -11.2 °C 34669.3 hPa ESE 25.9 km/h 25.9 km/h 39 % 0 mm
14:11 -3.1 °C -11.5 °C 34669.3 hPa NNE 29.8 km/h 29.8 km/h 39 % 0 mm
14:16 -3.1 °C -11.4 °C 34669.3 hPa ESE 23.8 km/h 23.8 km/h 39 % 0 mm
14:21 -3.2 °C -11.6 °C 34669.3 hPa ESE 32.8 km/h 32.8 km/h 39 % 0 mm
14:26 -3.3 °C -11.6 °C 34669.3 hPa ESE 26.9 km/h 26.9 km/h 39 % 0 mm
14:31 -3.2 °C -11.6 °C 34669.3 hPa ESE 15 km/h 15 km/h 39 % 0 mm
14:36 -3.3 °C -11.7 °C 34669.3 hPa ESE 25.1 km/h 25.1 km/h 39 % 0 mm
14:41 -3.3 °C -11.7 °C 34669.3 hPa ESE 32.8 km/h 32.8 km/h 39 % 0 mm
14:46 -3.2 °C -11.3 °C 34669.3 hPa ESE 20.9 km/h 20.9 km/h 40 % 0 mm
14:51 -3.2 °C -11.3 °C 34669.3 hPa ESE 25.9 km/h 25.9 km/h 40 % 0 mm
14:56 -3.2 °C -11.3 °C 34669.3 hPa ENE 23.8 km/h 23.8 km/h 40 % 0 mm
15:01 -3.2 °C -11.3 °C 34669.3 hPa ENE 23.8 km/h 23.8 km/h 40 % 0 mm
15:06 -3.2 °C -11.3 °C 34669.3 hPa ESE 11.9 km/h 11.9 km/h 40 % 0 mm
15:11 -3.2 °C -11.3 °C 34669.3 hPa ESE 17.9 km/h 17.9 km/h 40 % 0 mm
15:16 -3.3 °C -11.4 °C 34669.3 hPa ENE 20.9 km/h 20.9 km/h 40 % 0 mm
15:21 -3.3 °C -11.4 °C 34669.3 hPa ENE 23.8 km/h 23.8 km/h 40 % 0 mm
15:26 -3.2 °C -11.3 °C 34669.3 hPa ENE 26.9 km/h 26.9 km/h 40 % 0 mm
15:31 -3.2 °C -11.3 °C 34669.3 hPa ESE 20.9 km/h 20.9 km/h 40 % 0 mm
15:36 -3.3 °C -11.4 °C 34669.3 hPa NNE 15 km/h 15 km/h 40 % 0 mm
15:37 -3.3 °C -11.2 °C 34669.3 hPa NNE 15 km/h 15 km/h 41 % 0 mm
15:42 -3 °C -11.2 °C 34669.3 hPa SW 15 km/h 15 km/h 40 % 0 mm
15:47 -2 °C -10.7 °C 34669.3 hPa ESE 9 km/h 9 km/h 38 % 0 mm
15:52 -1.9 °C -11.1 °C 34669.3 hPa South 15 km/h 15 km/h 36 % 0 mm
15:57 -1.6 °C -11 °C 34669.3 hPa SSE 9.3 km/h 9.3 km/h 35 % 0 mm
16:02 -1.4 °C -11.2 °C 34669.3 hPa SSE 20.9 km/h 20.9 km/h 34 % 0 mm
16:07 -1.7 °C -12.1 °C 34669.3 hPa WSW 25.1 km/h 25.1 km/h 31 % 0 mm
16:12 -1.6 °C -12.1 °C 34669.3 hPa SW 17.9 km/h 17.9 km/h 31 % 0 mm
16:17 -1.5 °C -12 °C 34669.3 hPa SW 17.9 km/h 17.9 km/h 31 % 0 mm
16:22 -1.5 °C -12.3 °C 34669.3 hPa SW 16.1 km/h 16.1 km/h 30 % 0 mm
16:27 -1.5 °C -12.6 °C 34669.3 hPa ESE 17.9 km/h 17.9 km/h 29 % 0 mm
16:32 -1.4 °C -12.5 °C 34669.3 hPa SSW 17.9 km/h 17.9 km/h 29 % 0 mm
16:37 -1.5 °C -12.8 °C 34669.3 hPa SW 22 km/h 22 km/h 28 % 0 mm
16:42 -1.7 °C -12.7 °C 34669.3 hPa SW 20.9 km/h 20.9 km/h 29 % 0 mm
16:47 -1.8 °C -12.8 °C 34669.3 hPa SW 20.9 km/h 20.9 km/h 29 % 0 mm
16:52 -1.7 °C -12.9 °C 34669.3 hPa South 15 km/h 15 km/h 28 % 0 mm
16:57 -1.7 °C -12.9 °C 34635.4 hPa WSW 11.9 km/h 11.9 km/h 28 % 0 mm
17:02 -1.6 °C -12.9 °C 34635.4 hPa SW 20.9 km/h 20.9 km/h 28 % 0 mm
17:07 -1.9 °C -13.2 °C 34635.4 hPa SW 29.8 km/h 29.8 km/h 28 % 0 mm
17:12 -2 °C -13.3 °C 34669.3 hPa WSW 29.8 km/h 29.8 km/h 28 % 0 mm
17:17 -2.1 °C -13.4 °C 34669.3 hPa SW 26.9 km/h 26.9 km/h 28 % 0 mm
17:22 -2.1 °C -13.4 °C 34669.3 hPa South 32.8 km/h 32.8 km/h 28 % 0 mm
17:27 -1.9 °C -13.2 °C 34669.3 hPa SW 9 km/h 9 km/h 28 % 0 mm
17:32 -1.9 °C -13.2 °C 34669.3 hPa SW 14.5 km/h 14.5 km/h 28 % 0 mm
17:37 -2.1 °C -13.4 °C 34669.3 hPa SSW 20.9 km/h 20.9 km/h 28 % 0 mm
17:42 -1.9 °C -13.2 °C 34669.3 hPa SW 20.9 km/h 20.9 km/h 28 % 0 mm
17:47 -1.9 °C -13.2 °C 34669.3 hPa SW 17.9 km/h 17.9 km/h 28 % 0 mm
17:52 -2.1 °C -13.4 °C 34669.3 hPa SW 23.8 km/h 23.8 km/h 28 % 0 mm
17:57 -2.1 °C -13.4 °C 34669.3 hPa WSW 20.9 km/h 20.9 km/h 28 % 0 mm
18:02 -2.2 °C -13.2 °C 34669.3 hPa SW 35.7 km/h 35.7 km/h 29 % 0 mm
18:07 -2.2 °C -13.4 °C 34669.3 hPa SSE 15 km/h 15 km/h 28 % 0 mm
18:12 -2.1 °C -13.1 °C 34669.3 hPa SW 11.9 km/h 11.9 km/h 29 % 0 mm
18:17 -2.3 °C -13.2 °C 34669.3 hPa SW 20.9 km/h 20.9 km/h 29 % 0 mm
18:22 -2.4 °C -13.3 °C 34669.3 hPa SW 20.9 km/h 20.9 km/h 29 % 0 mm
18:27 -2.4 °C -13.3 °C 34669.3 hPa WSW 17.9 km/h 17.9 km/h 29 % 0 mm
18:32 -2.4 °C -13.4 °C 34669.3 hPa SSW 15 km/h 15 km/h 29 % 0 mm
18:37 -2.6 °C -13.7 °C 34669.3 hPa SW 31.4 km/h 31.4 km/h 28 % 0 mm
18:42 -2.6 °C -13.8 °C 34669.3 hPa SW 17.9 km/h 17.9 km/h 28 % 0 mm
18:47 -2.7 °C -13.9 °C 34669.3 hPa SSW 15 km/h 15 km/h 28 % 0 mm
18:52 -2.6 °C -13.4 °C 34669.3 hPa SW 15 km/h 15 km/h 29 % 0 mm
18:57 -2.6 °C -13.5 °C 34703.1 hPa South 15 km/h 15 km/h 29 % 0 mm
19:02 -2.7 °C -13.6 °C 34703.1 hPa SW 12.7 km/h 12.7 km/h 29 % 0 mm
19:07 -2.9 °C -13.7 °C 34703.1 hPa SW 15 km/h 15 km/h 29 % 0 mm
19:12 -3 °C -13.8 °C 34669.3 hPa South 11.9 km/h 11.9 km/h 29 % 0 mm
19:15 -7.3 °C -12.6 °C 34740.4 hPa Calm   2.6 km/h 54 % 0 mm
19:17 -2.9 °C -13.8 °C 34669.3 hPa SW 9 km/h 9 km/h 29 % 0 mm
19:22 -3.1 °C -13.9 °C 34669.3 hPa SW 12.2 km/h 12.2 km/h 29 % 0 mm
19:25 -7.4 °C -12.4 °C 34740.4 hPa Calm   2.6 km/h 56 % 0 mm
19:27 -3.1 °C -13.7 °C 34669.3 hPa South 9 km/h 9 km/h 30 % 0 mm
19:32 -3.3 °C -14.1 °C 34669.3 hPa WSW 17.9 km/h 17.9 km/h 29 % 0 mm
19:35 -7.4 °C -12.3 °C 34740.4 hPa Calm     57 % 0 mm
19:37 -3.3 °C -14.1 °C 34669.3 hPa SW 17.9 km/h 17.9 km/h 29 % 0 mm
19:42 -3.5 °C -14.3 °C 34703.1 hPa SW 15 km/h 15 km/h 29 % 0 mm
19:45 -7.6 °C -12.2 °C 34740.4 hPa Calm     58 % 0 mm
19:47 -3.6 °C -14.1 °C 34703.1 hPa SW 15 km/h 15 km/h 30 % 0 mm
19:52 -3.7 °C -14.1 °C 34703.1 hPa SW 15.6 km/h 15.6 km/h 30 % 0 mm
19:55 -7.6 °C -12.1 °C 34740.4 hPa Calm   2.6 km/h 59 % 0 mm
19:57 -3.8 °C -14.2 °C 34703.1 hPa WSW 11.1 km/h 11.1 km/h 30 % 0 mm
20:02 -3.9 °C -14.3 °C 34703.1 hPa WSW 11.9 km/h 11.9 km/h 30 % 0 mm
20:05 -7.6 °C -12 °C 34740.4 hPa NNE 2.6 km/h 5.1 km/h 60 % 0 mm
20:07 -4 °C -14.2 °C 34703.1 hPa SW 15 km/h 15 km/h 31 % 0 mm
20:12 -4.1 °C -14.2 °C 34703.1 hPa SW 11.9 km/h 11.9 km/h 31 % 0 mm
20:15 -7.7 °C -11.8 °C 34703.1 hPa Calm   5.1 km/h 62 % 0 mm
20:17 -4.2 °C -14.3 °C 34703.1 hPa SW 11.9 km/h 11.9 km/h 31 % 0 mm
20:22 -4.3 °C -14.4 °C 34703.1 hPa SSW 15 km/h 15 km/h 31 % 0 mm
20:25 -7.7 °C -11.8 °C 34740.4 hPa Calm   2.6 km/h 62 % 0 mm
20:27 -4.4 °C -14.5 °C 34740.4 hPa SSW 9 km/h 9 km/h 31 % 0 mm
20:32 -4.5 °C -14.6 °C 34740.4 hPa SW 11.9 km/h 11.9 km/h 31 % 0 mm
20:37 -4.6 °C -14.4 °C 34740.4 hPa SSW 11.9 km/h 11.9 km/h 32 % 0 mm
20:42 -4.7 °C -14.6 °C 34740.4 hPa SW 6 km/h 6 km/h 32 % 0 mm
20:45 -7.9 °C -11.9 °C 34740.4 hPa Calm   5.1 km/h 63 % 0 mm
20:47 -4.8 °C -14.6 °C 34740.4 hPa SW 9 km/h 9 km/h 32 % 0 mm
20:52 -5 °C -14.6 °C 34740.4 hPa South 11.9 km/h 11.9 km/h 33 % 0 mm
20:55 -8.1 °C -12 °C 34740.4 hPa NE 2.6 km/h 2.6 km/h 63 % 0 mm
20:57 -5.1 °C -14.4 °C 34669.3 hPa SW 7.6 km/h 7.6 km/h 34 % 0 mm
21:02 -5.2 °C -14.4 °C 34669.3 hPa West 11.9 km/h 11.9 km/h 34 % 0 mm
21:05 -8.1 °C -12.3 °C 34740.4 hPa Calm   2.6 km/h 61 % 0 mm
21:07 -5.3 °C -14.3 °C 34669.3 hPa WSW 9 km/h 9 km/h 35 % 0 mm
21:12 -5.3 °C -14.1 °C 34669.3 hPa SW 6 km/h 6 km/h 36 % 0 mm
21:15 -8.2 °C -12.3 °C 34740.4 hPa Calm     62 % 0 mm
21:17 -5.4 °C -14.2 °C 34669.3 hPa WSW 6 km/h 6 km/h 36 % 0 mm
21:22 -5.5 °C -14.1 °C 34669.3 hPa SW 6 km/h 6 km/h 37 % 0 mm
21:25 -8.3 °C -12.3 °C 34740.4 hPa SSE 2.6 km/h 5.1 km/h 62 % 0 mm
21:27 -5.6 °C -14.1 °C 34669.3 hPa SW 6 km/h 6 km/h 37 % 0 mm
21:32 -5.6 °C -14.1 °C 34669.3 hPa SW 6 km/h 6 km/h 37 % 0 mm
21:35 -8.3 °C -12.2 °C 34740.4 hPa Calm   2.6 km/h 64 % 0 mm
21:37 -5.7 °C -14 °C 34669.3 hPa Calm     38 % 0 mm
21:42 -5.7 °C -14 °C 34669.3 hPa West 3.1 km/h   38 % 0 mm
21:45 -8.4 °C -12.1 °C 34703.1 hPa South 2.6 km/h 2.6 km/h 65 % 0 mm
21:47 -5.8 °C -14.1 °C 34669.3 hPa West 3.7 km/h   38 % 0 mm
21:52 -5.8 °C -13.9 °C 34669.3 hPa Calm     39 % 0 mm
21:55 -8.4 °C -12.1 °C 34703.1 hPa East 2.6 km/h 5.1 km/h 65 % 0 mm
21:57 -5.9 °C -14 °C 34703.1 hPa Calm     39 % 0 mm
22:02 -5.9 °C -14 °C 34703.1 hPa Calm     39 % 0 mm
22:05 -8.5 °C -12.3 °C 34703.1 hPa Calm   2.6 km/h 64 % 0 mm
22:07 -6 °C -14.1 °C 34703.1 hPa Calm     39 % 0 mm
22:12 -6.1 °C -13.9 °C 34703.1 hPa Calm     40 % 0 mm
22:15 -8.6 °C -12.3 °C 34669.3 hPa Calm   5.1 km/h 64 % 0 mm
22:17 -6.1 °C -13.9 °C 34703.1 hPa Calm     40 % 0 mm
22:22 -6.2 °C -13.8 °C 34703.1 hPa Calm     41 % 0 mm
22:25 -8.8 °C -12.4 °C 34669.3 hPa Calm   2.6 km/h 65 % 0 mm
22:27 -6.2 °C -13.8 °C 34740.4 hPa West 3.1 km/h   41 % 0 mm
22:32 -6.2 °C -13.7 °C 34740.4 hPa West 3.1 km/h   42 % 0 mm
22:35 -8.9 °C -12.6 °C 34669.3 hPa Calm   2.6 km/h 65 % 0 mm
22:37 -6.3 °C -13.7 °C 34740.4 hPa West 3.1 km/h   42 % 0 mm
22:42 -6.3 °C -13.8 °C 34740.4 hPa Calm     42 % 0 mm
22:45 -9.1 °C -12.6 °C 34669.3 hPa Calm   5.1 km/h 66 % 0 mm
22:47 -6.3 °C -13.6 °C 34740.4 hPa Calm     43 % 0 mm
22:52 -6.4 °C -13.6 °C 34740.4 hPa West 3.1 km/h   43 % 0 mm
22:55 -9.1 °C -12.6 °C 34669.3 hPa Calm     66 % 0 mm
22:57 -6.4 °C -13.5 °C 34740.4 hPa East 6 km/h 6 km/h 44 % 0 mm
23:02 -6.4 °C -13.5 °C 34740.4 hPa East 3.1 km/h 3.1 km/h 44 % 0 mm
23:05 -9.1 °C -12.6 °C 34669.3 hPa Calm     66 % 0 mm
23:07 -6.6 °C -13.2 °C 34740.4 hPa East 3.1 km/h   46 % 0 mm
23:12 -6.6 °C -12.9 °C 34740.4 hPa Calm     48 % 0 mm
23:15 -9.1 °C -12.6 °C 34669.3 hPa Calm     66 % 0 mm
23:17 -6.7 °C -12.8 °C 34740.4 hPa Calm     49 % 0 mm
23:22 -6.7 °C -12.7 °C 34740.4 hPa East 2.3 km/h   50 % 0 mm
23:25 -9.1 °C -12.6 °C 34669.3 hPa WSW 2.6 km/h 5.1 km/h 66 % 0 mm
23:27 -6.8 °C -12.7 °C 34740.4 hPa Calm     50 % 0 mm
23:32 -6.9 °C -12.9 °C 34740.4 hPa Calm     50 % 0 mm
23:35 -9.3 °C -12.7 °C 34669.3 hPa Calm     67 % 0 mm
23:37 -7 °C -12.9 °C 34740.4 hPa Calm     50 % 0 mm
23:42 -7.1 °C -13 °C 34740.4 hPa Calm     50 % 0 mm
23:45 -9.3 °C -12.7 °C 34669.3 hPa Calm     67 % 0 mm
23:47 -7.1 °C -12.9 °C 34740.4 hPa Calm     51 % 0 mm
23:52 -7.2 °C -12.9 °C 34740.4 hPa SSW 4.2 km/h 4.2 km/h 51 % 0 mm
23:55 -9.4 °C -12.8 °C 34669.3 hPa Calm     67 % 0 mm
23:57 -7.2 °C -12.8 °C 34740.4 hPa SSW 3.1 km/h 3.1 km/h 52 % 0 mm
Meteo Sesrovires
Elogis d' Weather Underground - 1.5 mb

Guio original per  Jim McMurry - jmcmurry@mwt.net Adaptat per a la plantilla per  Wim van der Kuil - Leuven-Template.eu

Trobareu la nostra informacio del temps tambe a:

Weather Underground

AWEKAS